createdAt,value
2022-11-07T04:50:05.493Z,76.92
2022-11-07T04:53:11.361Z,75.05
2022-11-07T18:51:39.249Z,78.97
2022-11-07T18:54:42.947Z,76.71
2022-11-07T18:57:47.139Z,75.59
2022-11-07T19:00:50.719Z,75.29
2022-11-07T19:03:55.310Z,74.44
2022-11-07T19:07:00.319Z,74.43
2022-11-07T19:10:04.080Z,74.09
2022-11-07T19:13:08.510Z,73.80
2022-11-07T19:16:15.697Z,73.62
2022-11-07T19:19:19.691Z,74.13
2022-11-07T19:22:24.655Z,73.42
2022-11-07T19:25:28.272Z,73.17
2022-11-07T19:28:32.078Z,73.54
2022-11-07T19:31:37.181Z,73.45
2022-11-07T19:34:40.984Z,73.68
2022-11-07T19:37:46.074Z,73.66
2022-11-07T19:40:50.094Z,73.94
2022-11-07T19:43:53.737Z,73.87
2022-11-07T19:46:57.472Z,73.63
2022-11-07T19:50:01.281Z,73.68
2022-11-07T19:53:06.950Z,73.62
2022-11-07T19:56:14.153Z,73.49
2022-11-07T19:59:17.777Z,73.46
2022-11-07T20:02:43.011Z,74.31
2022-11-07T20:05:45.040Z,72.87
2022-11-07T20:08:50.789Z,72.96
2022-11-07T20:11:54.336Z,73.50
2022-11-07T20:14:58.031Z,71.98
2022-11-07T20:18:01.578Z,72.63
2022-11-07T20:21:07.701Z,72.43
2022-11-07T20:24:12.643Z,72.27
2022-11-07T20:27:16.227Z,72.78
2022-11-07T20:30:19.988Z,73.49
2022-11-07T20:33:25.428Z,74.33
2022-11-07T20:36:31.135Z,74.06
2022-11-07T20:39:36.106Z,74.17
2022-11-07T20:42:39.649Z,74.51
2022-11-07T20:45:43.234Z,74.62
2022-11-07T20:48:47.004Z,74.48
2022-11-07T20:51:52.730Z,76.14
2022-11-07T20:54:57.701Z,76.11
2022-11-07T20:58:03.537Z,75.23
2022-11-07T21:01:09.167Z,75.33
2022-11-07T21:04:16.414Z,75.72
2022-11-07T21:07:23.637Z,75.86
2022-11-07T21:10:28.584Z,76.04
2022-11-07T21:13:32.195Z,76.02
2022-11-07T21:16:35.765Z,76.03
2022-11-07T22:46:35.290Z,76.46
2022-11-07T22:49:38.999Z,74.39
2022-11-07T22:52:42.578Z,73.33
